Bei Facebook empfehlenBei Twitter postenGoogle plusPinterest

Das Wetter im Erzgebirge am 28.08.2015

Wetter und Klima am 28.08.2015 Holzhau im Erzgebirge (630m ü.NN)
Letzte gemessene Temperatur und Uhrzeit der Messung23:45:00 Uhr15.70 °C
Temperatur (Maximum / Höchstwert) und Uhrzeit der Messung16:15:00 Uhr21.90 °C
Temperatur (Minimum / Tiefstwert) und Uhrzeit der Messung23:45:0015.70 °C
Errechneter Absolutwert der Temperaturschwankungen zwischen Tmin und Tmax des Tages6.20 K
Errechnete Tagesmitteltemperatur17.85104 °C
Gesamt - Niederschlag des Tages (in flüssiger Form)0.00 Liter / m²
Luftdruck (Maximum / Höchstwert) und Zeitpunkt der Messung23:45:00 Uhr1019.20 hPa
Luftdruck (Minimum / Tiefstwert) und Zeitpunkt der Messung01:45:00 Uhr1009.70 hPa
Errechneter Absolutwert der Luftdruckschwankungen des Tages9.50 hPa
Höchste gemessene Windgeschwindigkeit und Uhrzeit der Messung10:45:00 Uhr14.40 km/h
Errechnete Windhäufigkeit in Relation zu den Messwerten des Tages7.29167 %
Niedrigste Windkühle (Windchill) und Zeitpunkt der Messung23:45:00 Uhr15.70 °C
Taupunkt (Maximum / Höchstwert) und Uhrzeit der Messung15:15:00 Uhr18.10 °C
Taupunkt (Minimum / Tiefstwert) und Uhrzeit der Messung01:00:0010.90 °C
Anzahl der automatisch eingelesenen Messwerte 96

Detaillierte Wetter- und Klima- Messwerte für den 28.08.2015 in Holzhau im Erzgebirge (630m ü.NN)
ZeitTemperaturLuftdruckRel. LuftfeuchteWindWindrichtungWindchillTaupunktNiederschlag l/m²
23:45:0015.70 °C1019.20 hPa91.00 %14.20 °C 
23:30:0015.90 °C1018.90 hPa90.00 %14.30 °C 
23:15:0015.90 °C1018.90 hPa90.00 %14.30 °C 
23:00:0015.90 °C1018.80 hPa90.00 %14.30 °C 
22:45:0015.90 °C1018.90 hPa90.00 %14.30 °C 
22:30:0015.90 °C1018.70 hPa90.00 %14.30 °C 
22:15:0016.00 °C1018.50 hPa90.00 %14.40 °C 
22:00:0016.10 °C1018.50 hPa90.00 %14.50 °C 
21:45:0016.10 °C1018.40 hPa90.00 %14.50 °C 
21:30:0016.10 °C1018.20 hPa89.00 %14.30 °C 
21:15:0016.20 °C1018.20 hPa89.00 %14.40 °C 
21:00:0016.40 °C1018.00 hPa89.00 %14.60 °C 
20:45:0016.40 °C1018.00 hPa88.00 %14.40 °C 
20:30:0016.50 °C1017.80 hPa88.00 %14.50 °C 
20:15:0016.70 °C1017.80 hPa88.00 %14.70 °C 
20:00:0016.90 °C1017.50 hPa88.00 %14.90 °C 
19:45:0017.00 °C1017.40 hPa87.00 %14.80 °C 
19:30:0017.30 °C1017.10 hPa87.00 %15.10 °C 
19:15:0017.50 °C1017.10 hPa86.00 %15.10 °C 
19:00:0017.80 °C1017.10 hPa86.00 %15.40 °C 
18:45:0018.00 °C1017.20 hPa85.00 %15.40 °C 
18:30:0018.30 °C1017.00 hPa85.00 %15.70 °C 
18:15:0018.60 °C1017.10 hPa84.00 %15.80 °C 
18:00:0018.90 °C1017.00 hPa84.00 %16.10 °C 
17:45:0019.10 °C1016.90 hPa84.00 %16.30 °C 
17:30:0019.10 °C1016.80 hPa82.00 %16.00 °C 
17:15:0019.40 °C1016.90 hPa81.00 %16.10 °C 
17:00:0019.90 °C1016.70 hPa80.00 %16.30 °C 
16:45:0020.40 °C1016.60 hPa79.00 %16.60 °C 
16:30:0021.40 °C1016.70 hPa78.00 %5.04 km/hWSW22.70 °C17.40 °C 
16:15:0021.90 °C1016.60 hPa78.00 %17.90 °C 
16:00:0021.80 °C1016.50 hPa78.00 %17.80 °C 
15:45:0021.80 °C1016.40 hPa79.00 %18.00 °C 
15:30:0021.60 °C1016.40 hPa80.00 %18.00 °C 
15:15:0021.30 °C1016.20 hPa82.00 %18.10 °C 
15:00:0020.60 °C1016.10 hPa83.00 %17.60 °C 
14:45:0019.10 °C1016.20 hPa84.00 %16.30 °C 
14:30:0018.80 °C1016.20 hPa84.00 %16.00 °C 
14:15:0018.80 °C1016.10 hPa84.00 %16.00 °C 
14:00:0019.20 °C1015.80 hPa83.00 %16.20 °C 
13:45:0019.60 °C1015.70 hPa83.00 %3.60 km/hWSW19.60 °C16.60 °C 
13:30:0019.50 °C1015.50 hPa83.00 %16.50 °C 
13:15:0019.50 °C1015.50 hPa83.00 %4.68 km/hSSW19.50 °C16.50 °C 
13:00:0019.60 °C1015.20 hPa83.00 %16.60 °C 
12:45:0019.80 °C1015.10 hPa82.00 %16.60 °C 
12:30:0019.80 °C1015.10 hPa83.00 %16.80 °C 
12:15:0019.60 °C1015.20 hPa82.00 %16.40 °C 
12:00:0019.90 °C1014.80 hPa82.00 %16.70 °C 
11:45:0019.80 °C1014.90 hPa81.00 %16.40 °C 
11:30:0019.80 °C1014.80 hPa81.00 %5.04 km/hW20.90 °C16.40 °C 
11:15:0019.80 °C1014.40 hPa81.00 %3.60 km/hWSW19.80 °C16.40 °C 
11:00:0020.10 °C1014.40 hPa81.00 %3.96 km/hWSW20.10 °C16.70 °C 
10:45:0020.30 °C1014.20 hPa82.00 %14.40 km/hS20.60 °C17.10 °C 
10:30:0019.90 °C1014.10 hPa82.00 %16.70 °C 
10:15:0020.10 °C1013.80 hPa82.00 %16.90 °C 
10:00:0019.90 °C1013.60 hPa83.00 %16.90 °C 
09:45:0019.60 °C1013.50 hPa84.00 %16.80 °C 
09:30:0019.30 °C1013.30 hPa84.00 %16.50 °C 
09:15:0018.60 °C1013.20 hPa85.00 %16.00 °C 
09:00:0018.20 °C1013.00 hPa85.00 %15.60 °C 
08:45:0017.90 °C1013.10 hPa85.00 %15.30 °C 
08:30:0017.70 °C1012.60 hPa86.00 %15.30 °C 
08:15:0017.30 °C1012.90 hPa86.00 %14.90 °C 
08:00:0016.90 °C1012.60 hPa85.00 %14.40 °C 
07:45:0016.60 °C1012.50 hPa85.00 %14.10 °C 
07:30:0016.20 °C1012.50 hPa85.00 %13.70 °C 
07:15:0016.00 °C1012.40 hPa85.00 %13.50 °C 
07:00:0015.90 °C1012.30 hPa84.00 %13.20 °C 
06:45:0015.90 °C1012.30 hPa84.00 %13.20 °C 
06:30:0015.90 °C1012.40 hPa83.00 %13.00 °C 
06:15:0015.90 °C1012.30 hPa82.00 %12.80 °C 
06:00:0015.90 °C1012.00 hPa82.00 %12.80 °C 
05:45:0016.00 °C1012.00 hPa81.00 %12.70 °C 
05:30:0015.90 °C1011.90 hPa81.00 %12.60 °C 
05:15:0015.90 °C1011.70 hPa80.00 %12.50 °C 
05:00:0015.90 °C1011.50 hPa79.00 %12.30 °C 
04:45:0015.80 °C1011.20 hPa79.00 %12.20 °C 
04:30:0015.80 °C1010.70 hPa78.00 %12.00 °C 
04:15:0015.90 °C1010.40 hPa77.00 %11.90 °C 
04:00:0016.10 °C1010.30 hPa76.00 %11.90 °C 
03:45:0016.40 °C1009.90 hPa76.00 %12.20 °C 
03:30:0016.40 °C1009.80 hPa76.00 %12.20 °C 
03:15:0016.60 °C1010.20 hPa75.00 %12.20 °C 
03:00:0016.70 °C1009.80 hPa74.00 %12.00 °C 
02:45:0016.90 °C1009.80 hPa74.00 %12.20 °C 
02:30:0016.80 °C1009.80 hPa74.00 %12.10 °C 
02:15:0016.80 °C1010.00 hPa73.00 %11.90 °C 
02:00:0016.70 °C1009.80 hPa73.00 %11.80 °C 
01:45:0016.30 °C1009.70 hPa72.00 %11.20 °C 
01:30:0016.40 °C1009.80 hPa71.00 %11.10 °C 
01:15:0016.40 °C1009.80 hPa71.00 %11.10 °C 
01:00:0016.40 °C1009.70 hPa70.00 %10.90 °C 
00:45:0016.90 °C1009.80 hPa68.00 %11.00 °C 
00:30:0017.50 °C1009.90 hPa67.00 %11.30 °C 
00:15:0017.90 °C1010.00 hPa66.00 %11.50 °C 
00:00:0018.30 °C1010.00 hPa65.00 %11.60 °C 

Permanenter Link zu dieser Seite: Wetter im Erzgebirge am 28.08.2015
Performance-Info: Die Erstellung der Seite / Statistik(en) / Tabelle(n) erforderte 5 Datenbankserver-Abfrage(n) und dauerte 101 Millisekunden. (Dieser Messwert ist von der Gesamt-Auslastung des Servers abhängig.)
Erzgebirge - Wetter | Erzgebirge - Wetter (Mobilgeräte) | Komplette Klimadatenbank